sensor_id;sensor_type;location;lat;lon;timestamp;pressure;altitude;pressure_sealevel;temperature;humidity
16777;BME280;8505;49.456;8.164;2023-09-19T00:00:35;99224.84;;;17.47;88.66
16777;BME280;8505;49.456;8.164;2023-09-19T00:03:03;99231.50;;;17.44;88.31
16777;BME280;8505;49.456;8.164;2023-09-19T00:05:34;99235.81;;;17.45;88.49
16777;BME280;8505;49.456;8.164;2023-09-19T00:08:02;99236.66;;;17.57;88.08
16777;BME280;8505;49.456;8.164;2023-09-19T00:10:32;99238.25;;;17.47;88.72
16777;BME280;8505;49.456;8.164;2023-09-19T00:13:02;99240.56;;;17.43;88.70
16777;BME280;8505;49.456;8.164;2023-09-19T00:15:38;99256.25;;;17.28;89.79
16777;BME280;8505;49.456;8.164;2023-09-19T00:18:06;99254.44;;;17.40;89.31
16777;BME280;8505;49.456;8.164;2023-09-19T00:20:35;99256.41;;;17.45;89.30
16777;BME280;8505;49.456;8.164;2023-09-19T00:23:05;99257.47;;;17.55;87.75
16777;BME280;8505;49.456;8.164;2023-09-19T00:25:35;99259.41;;;17.66;87.33
16777;BME280;8505;49.456;8.164;2023-09-19T00:28:04;99265.13;;;17.70;86.79
16777;BME280;8505;49.456;8.164;2023-09-19T00:30:37;99271.75;;;17.67;87.20
16777;BME280;8505;49.456;8.164;2023-09-19T00:33:05;99274.56;;;17.72;87.08
16777;BME280;8505;49.456;8.164;2023-09-19T00:35:34;99271.31;;;17.70;87.04
16777;BME280;8505;49.456;8.164;2023-09-19T00:38:03;99271.88;;;17.72;87.02
16777;BME280;8505;49.456;8.164;2023-09-19T00:40:33;99271.88;;;17.72;86.94
16777;BME280;8505;49.456;8.164;2023-09-19T00:43:02;99272.47;;;17.74;86.96
16777;BME280;8505;49.456;8.164;2023-09-19T00:45:30;99274.69;;;17.77;86.52
16777;BME280;8505;49.456;8.164;2023-09-19T00:48:01;99266.22;;;17.81;86.56
16777;BME280;8505;49.456;8.164;2023-09-19T00:50:30;99264.13;;;17.83;86.26
16777;BME280;8505;49.456;8.164;2023-09-19T00:52:59;99273.75;;;17.72;86.83
16777;BME280;8505;49.456;8.164;2023-09-19T00:55:29;99267.94;;;17.75;86.60
16777;BME280;8505;49.456;8.164;2023-09-19T00:57:59;99269.81;;;17.74;86.60
16777;BME280;8505;49.456;8.164;2023-09-19T01:00:28;99264.31;;;17.69;86.95
16777;BME280;8505;49.456;8.164;2023-09-19T01:03:00;99276.41;;;17.72;86.86
16777;BME280;8505;49.456;8.164;2023-09-19T01:05:29;99283.78;;;17.76;86.98
16777;BME280;8505;49.456;8.164;2023-09-19T01:07:57;99288.69;;;17.79;87.46
16777;BME280;8505;49.456;8.164;2023-09-19T01:10:25;99292.97;;;17.69;89.50
16777;BME280;8505;49.456;8.164;2023-09-19T01:13:13;99292.25;;;17.62;90.96
16777;BME280;8505;49.456;8.164;2023-09-19T01:15:50;99293.72;;;17.58;91.40
16777;BME280;8505;49.456;8.164;2023-09-19T01:18:27;99294.13;;;17.43;92.96
16777;BME280;8505;49.456;8.164;2023-09-19T01:21:05;99294.94;;;17.44;92.77
16777;BME280;8505;49.456;8.164;2023-09-19T01:23:55;99295.97;;;17.43;93.45
16777;BME280;8505;49.456;8.164;2023-09-19T01:26:51;99295.97;;;17.43;93.50
16777;BME280;8505;49.456;8.164;2023-09-19T01:29:34;99297.75;;;17.49;93.82
16777;BME280;8505;49.456;8.164;2023-09-19T01:32:08;99304.22;;;17.41;93.13
16777;BME280;8505;49.456;8.164;2023-09-19T01:34:46;99301.88;;;17.33;93.79
16777;BME280;8505;49.456;8.164;2023-09-19T01:37:19;99300.66;;;17.29;94.11
16777;BME280;8505;49.456;8.164;2023-09-19T01:39:50;99308.69;;;17.29;93.91
16777;BME280;8505;49.456;8.164;2023-09-19T01:42:28;99317.63;;;17.23;94.51
16777;BME280;8505;49.456;8.164;2023-09-19T01:45:03;99323.38;;;17.26;94.66
16777;BME280;8505;49.456;8.164;2023-09-19T01:47:38;99318.59;;;17.10;95.47
16777;BME280;8505;49.456;8.164;2023-09-19T01:50:17;99311.72;;;17.03;96.00
16777;BME280;8505;49.456;8.164;2023-09-19T01:52:56;99316.47;;;17.19;94.99
16777;BME280;8505;49.456;8.164;2023-09-19T01:55:26;99318.59;;;17.10;95.34
16777;BME280;8505;49.456;8.164;2023-09-19T01:58:01;99320.63;;;17.15;95.71
16777;BME280;8505;49.456;8.164;2023-09-19T02:00:32;99318.31;;;17.00;95.90
16777;BME280;8505;49.456;8.164;2023-09-19T02:03:04;99323.59;;;17.07;95.93
16777;BME280;8505;49.456;8.164;2023-09-19T02:05:32;99325.81;;;17.10;94.80
16777;BME280;8505;49.456;8.164;2023-09-19T02:08:00;99331.41;;;17.08;94.49
16777;BME280;8505;49.456;8.164;2023-09-19T02:10:28;99335.72;;;17.09;94.62
16777;BME280;8505;49.456;8.164;2023-09-19T02:12:55;99338.41;;;17.09;94.50
16777;BME280;8505;49.456;8.164;2023-09-19T02:15:24;99351.38;;;17.06;94.30
16777;BME280;8505;49.456;8.164;2023-09-19T02:17:52;99349.66;;;16.93;94.47
16777;BME280;8505;49.456;8.164;2023-09-19T02:20:21;99348.41;;;16.95;94.26
16777;BME280;8505;49.456;8.164;2023-09-19T02:22:49;99341.78;;;16.98;93.17
16777;BME280;8505;49.456;8.164;2023-09-19T02:25:18;99352.13;;;16.94;92.88
16777;BME280;8505;49.456;8.164;2023-09-19T02:27:46;99352.88;;;17.02;93.11
16777;BME280;8505;49.456;8.164;2023-09-19T02:30:14;99373.59;;;16.88;94.42
16777;BME280;8505;49.456;8.164;2023-09-19T02:32:44;99370.91;;;16.88;94.25
16777;BME280;8505;49.456;8.164;2023-09-19T02:35:12;99380.19;;;16.85;94.88
16777;BME280;8505;49.456;8.164;2023-09-19T02:37:42;99373.28;;;16.78;94.55
16777;BME280;8505;49.456;8.164;2023-09-19T02:40:11;99379.47;;;16.78;94.30
16777;BME280;8505;49.456;8.164;2023-09-19T02:42:46;99378.19;;;16.81;93.83
16777;BME280;8505;49.456;8.164;2023-09-19T02:45:16;99388.13;;;16.74;92.48
16777;BME280;8505;49.456;8.164;2023-09-19T02:47:45;99378.38;;;16.61;92.28
16777;BME280;8505;49.456;8.164;2023-09-19T02:50:14;99381.81;;;16.68;91.70
16777;BME280;8505;49.456;8.164;2023-09-19T02:52:44;99383.50;;;16.63;90.68
16777;BME280;8505;49.456;8.164;2023-09-19T02:55:15;99389.06;;;16.61;91.11
16777;BME280;8505;49.456;8.164;2023-09-19T02:57:46;99384.34;;;16.56;89.85
16777;BME280;8505;49.456;8.164;2023-09-19T03:00:15;99395.78;;;16.70;89.23
16777;BME280;8505;49.456;8.164;2023-09-19T03:02:43;99396.47;;;16.59;89.28
16777;BME280;8505;49.456;8.164;2023-09-19T03:05:13;99394.41;;;16.61;89.14
16777;BME280;8505;49.456;8.164;2023-09-19T03:07:41;99402.44;;;16.61;89.11
16777;BME280;8505;49.456;8.164;2023-09-19T03:10:11;99397.06;;;16.61;88.95
16777;BME280;8505;49.456;8.164;2023-09-19T03:12:39;99402.66;;;16.60;88.85
16777;BME280;8505;49.456;8.164;2023-09-19T03:15:07;99413.63;;;16.45;89.47
16777;BME280;8505;49.456;8.164;2023-09-19T03:17:36;99419.16;;;16.50;89.57
16777;BME280;8505;49.456;8.164;2023-09-19T03:20:05;99422.47;;;16.45;89.43
16777;BME280;8505;49.456;8.164;2023-09-19T03:22:35;99425.06;;;16.58;89.15
16777;BME280;8505;49.456;8.164;2023-09-19T03:25:04;99419.97;;;16.50;88.92
16777;BME280;8505;49.456;8.164;2023-09-19T03:27:39;99424.34;;;16.45;88.92
16777;BME280;8505;49.456;8.164;2023-09-19T03:30:07;99428.28;;;16.36;88.05
16777;BME280;8505;49.456;8.164;2023-09-19T03:32:35;99435.03;;;16.45;88.01
16777;BME280;8505;49.456;8.164;2023-09-19T03:35:04;99426.63;;;16.41;86.83
16777;BME280;8505;49.456;8.164;2023-09-19T03:37:32;99424.59;;;16.37;87.09
16777;BME280;8505;49.456;8.164;2023-09-19T03:40:00;99430.06;;;16.48;86.21
16777;BME280;8505;49.456;8.164;2023-09-19T03:42:32;99428.66;;;16.46;86.02
16777;BME280;8505;49.456;8.164;2023-09-19T03:45:05;99428.28;;;16.36;85.21
16777;BME280;8505;49.456;8.164;2023-09-19T03:47:33;99423.66;;;16.25;84.87
16777;BME280;8505;49.456;8.164;2023-09-19T03:50:01;99429.38;;;16.28;84.68
16777;BME280;8505;49.456;8.164;2023-09-19T03:52:29;99437.81;;;16.25;85.04
16777;BME280;8505;49.456;8.164;2023-09-19T03:54:57;99437.38;;;16.35;85.04
16777;BME280;8505;49.456;8.164;2023-09-19T03:57:26;99435.72;;;16.02;86.13
16777;BME280;8505;49.456;8.164;2023-09-19T03:59:53;99434.81;;;16.15;85.20
16777;BME280;8505;49.456;8.164;2023-09-19T04:02:23;99444.72;;;16.39;84.96
16777;BME280;8505;49.456;8.164;2023-09-19T04:04:52;99443.66;;;16.15;84.53
16777;BME280;8505;49.456;8.164;2023-09-19T04:07:19;99436.06;;;16.12;84.98
16777;BME280;8505;49.456;8.164;2023-09-19T04:09:49;99441.97;;;16.21;84.85
16777;BME280;8505;49.456;8.164;2023-09-19T04:12:19;99449.00;;;16.15;84.66
16777;BME280;8505;49.456;8.164;2023-09-19T04:14:47;99441.34;;;15.81;87.30
16777;BME280;8505;49.456;8.164;2023-09-19T04:17:15;99449.94;;;16.28;86.46
16777;BME280;8505;49.456;8.164;2023-09-19T04:19:44;99443.16;;;16.25;85.23
16777;BME280;8505;49.456;8.164;2023-09-19T04:22:12;99448.47;;;16.32;84.71
16777;BME280;8505;49.456;8.164;2023-09-19T04:24:40;99453.16;;;16.36;84.20
16777;BME280;8505;49.456;8.164;2023-09-19T04:27:08;99455.28;;;16.28;84.69
16777;BME280;8505;49.456;8.164;2023-09-19T04:29:36;99457.84;;;16.16;84.56
16777;BME280;8505;49.456;8.164;2023-09-19T04:32:04;99458.28;;;16.06;83.56
16777;BME280;8505;49.456;8.164;2023-09-19T04:34:32;99458.28;;;16.06;83.97
16777;BME280;8505;49.456;8.164;2023-09-19T04:37:02;99459.06;;;16.13;83.89
16777;BME280;8505;49.456;8.164;2023-09-19T04:39:30;99472.25;;;16.08;83.97
16777;BME280;8505;49.456;8.164;2023-09-19T04:41:58;99469.81;;;16.00;85.05
16777;BME280;8505;49.456;8.164;2023-09-19T04:44:26;99480.25;;;16.08;84.66
16777;BME280;8505;49.456;8.164;2023-09-19T04:46:54;99475.03;;;15.82;85.29
16777;BME280;8505;49.456;8.164;2023-09-19T04:49:22;99481.25;;;16.14;84.51
16777;BME280;8505;49.456;8.164;2023-09-19T04:51:50;99489.25;;;16.21;84.59
16777;BME280;8505;49.456;8.164;2023-09-19T04:54:19;99490.72;;;16.16;83.84
16777;BME280;8505;49.456;8.164;2023-09-19T04:56:46;99503.00;;;16.17;84.96
16777;BME280;8505;49.456;8.164;2023-09-19T04:59:14;99503.63;;;16.19;85.65
16777;BME280;8505;49.456;8.164;2023-09-19T05:01:42;99512.31;;;16.08;87.32
16777;BME280;8505;49.456;8.164;2023-09-19T05:04:10;99507.59;;;16.42;85.97
16777;BME280;8505;49.456;8.164;2023-09-19T05:06:38;99503.09;;;16.04;86.98
16777;BME280;8505;49.456;8.164;2023-09-19T05:09:06;99519.22;;;16.29;86.10
16777;BME280;8505;49.456;8.164;2023-09-19T05:11:36;99520.75;;;16.05;87.40
16777;BME280;8505;49.456;8.164;2023-09-19T05:14:04;99504.59;;;16.32;86.37
16777;BME280;8505;49.456;8.164;2023-09-19T05:16:32;99504.06;;;16.48;84.38
16777;BME280;8505;49.456;8.164;2023-09-19T05:19:00;99511.09;;;16.42;84.23
16777;BME280;8505;49.456;8.164;2023-09-19T05:21:28;99512.84;;;16.24;83.76
16777;BME280;8505;49.456;8.164;2023-09-19T05:23:57;99512.44;;;16.27;84.17
16777;BME280;8505;49.456;8.164;2023-09-19T05:26:25;99524.19;;;16.19;84.11
16777;BME280;8505;49.456;8.164;2023-09-19T05:28:54;99523.69;;;15.97;85.02
16777;BME280;8505;49.456;8.164;2023-09-19T05:31:22;99530.88;;;15.90;85.17
16777;BME280;8505;49.456;8.164;2023-09-19T05:33:51;99523.44;;;15.99;85.18
16777;BME280;8505;49.456;8.164;2023-09-19T05:36:21;99524.69;;;16.03;84.51
16777;BME280;8505;49.456;8.164;2023-09-19T05:38:48;99526.44;;;16.22;85.20
16777;BME280;8505;49.456;8.164;2023-09-19T05:41:20;99529.47;;;16.32;84.74
16777;BME280;8505;49.456;8.164;2023-09-19T05:43:49;99529.84;;;16.36;84.47
16777;BME280;8505;49.456;8.164;2023-09-19T05:46:18;99535.63;;;16.33;83.24
16777;BME280;8505;49.456;8.164;2023-09-19T05:48:46;99533.63;;;16.28;83.54
16777;BME280;8505;49.456;8.164;2023-09-19T05:51:16;99536.28;;;16.28;82.67
16777;BME280;8505;49.456;8.164;2023-09-19T05:53:44;99537.84;;;16.42;82.56
16777;BME280;8505;49.456;8.164;2023-09-19T05:56:14;99542.16;;;16.43;82.81
16777;BME280;8505;49.456;8.164;2023-09-19T05:58:45;99554.56;;;16.25;83.00
16777;BME280;8505;49.456;8.164;2023-09-19T06:01:13;99553.13;;;16.35;82.86
16777;BME280;8505;49.456;8.164;2023-09-19T06:03:43;99557.19;;;16.38;82.38
16777;BME280;8505;49.456;8.164;2023-09-19T06:06:11;99557.81;;;16.40;82.02
16777;BME280;8505;49.456;8.164;2023-09-19T06:08:38;99567.66;;;16.46;82.19
16777;BME280;8505;49.456;8.164;2023-09-19T06:11:07;99570.72;;;16.43;82.08
16777;BME280;8505;49.456;8.164;2023-09-19T06:13:35;99583.44;;;16.54;80.57
16777;BME280;8505;49.456;8.164;2023-09-19T06:16:06;99586.66;;;16.69;80.47
16777;BME280;8505;49.456;8.164;2023-09-19T06:18:34;99584.88;;;16.50;79.51
16777;BME280;8505;49.456;8.164;2023-09-19T06:21:04;99585.94;;;16.42;79.88
16777;BME280;8505;49.456;8.164;2023-09-19T06:23:34;99589.44;;;16.43;80.06
16777;BME280;8505;49.456;8.164;2023-09-19T06:26:02;99591.50;;;16.47;79.76
16777;BME280;8505;49.456;8.164;2023-09-19T06:28:33;99593.69;;;16.57;79.75
16777;BME280;8505;49.456;8.164;2023-09-19T06:31:03;99591.06;;;16.50;78.52
16777;BME280;8505;49.456;8.164;2023-09-19T06:33:34;99582.03;;;16.45;78.88
16777;BME280;8505;49.456;8.164;2023-09-19T06:36:07;99578.47;;;16.57;78.57
16777;BME280;8505;49.456;8.164;2023-09-19T06:38:35;99579.88;;;16.67;77.78
16777;BME280;8505;49.456;8.164;2023-09-19T06:41:03;99583.81;;;16.64;77.61
16777;BME280;8505;49.456;8.164;2023-09-19T06:43:34;99585.00;;;16.75;77.09
16777;BME280;8505;49.456;8.164;2023-09-19T06:46:02;99587.06;;;16.73;76.52
16777;BME280;8505;49.456;8.164;2023-09-19T06:48:30;99591.75;;;16.84;77.00
16777;BME280;8505;49.456;8.164;2023-09-19T06:50:59;99587.16;;;17.16;75.56
16777;BME280;8505;49.456;8.164;2023-09-19T06:53:32;99587.78;;;17.18;75.20
16777;BME280;8505;49.456;8.164;2023-09-19T06:56:02;99595.66;;;17.13;75.20
16777;BME280;8505;49.456;8.164;2023-09-19T06:58:30;99602.69;;;17.07;75.64
16777;BME280;8505;49.456;8.164;2023-09-19T07:00:58;99589.81;;;17.22;75.21
16777;BME280;8505;49.456;8.164;2023-09-19T07:03:26;99591.94;;;17.38;74.31
16777;BME280;8505;49.456;8.164;2023-09-19T07:05:55;99593.41;;;17.34;73.89
16777;BME280;8505;49.456;8.164;2023-09-19T07:08:25;99605.22;;;17.52;73.44
16777;BME280;8505;49.456;8.164;2023-09-19T07:10:56;99608.75;;;17.77;72.48
16777;BME280;8505;49.456;8.164;2023-09-19T07:13:24;99602.78;;;17.93;72.25
16777;BME280;8505;49.456;8.164;2023-09-19T07:15:52;99614.19;;;18.07;71.11
16777;BME280;8505;49.456;8.164;2023-09-19T07:18:21;99610.75;;;17.82;71.78
16777;BME280;8505;49.456;8.164;2023-09-19T07:20:48;99622.38;;;17.94;71.42
16777;BME280;8505;49.456;8.164;2023-09-19T07:23:17;99627.94;;;17.92;72.11
16777;BME280;8505;49.456;8.164;2023-09-19T07:25:45;99620.13;;;17.91;70.46
16777;BME280;8505;49.456;8.164;2023-09-19T07:28:15;99630.34;;;18.00;70.77
16777;BME280;8505;49.456;8.164;2023-09-19T07:30:43;99632.81;;;18.20;69.31
16777;BME280;8505;49.456;8.164;2023-09-19T07:33:10;99630.34;;;18.55;68.87
16777;BME280;8505;49.456;8.164;2023-09-19T07:35:39;99636.91;;;18.89;66.12
16777;BME280;8505;49.456;8.164;2023-09-19T07:38:07;99638.31;;;19.21;65.40
16777;BME280;8505;49.456;8.164;2023-09-19T07:40:37;99644.72;;;19.20;64.48
16777;BME280;8505;49.456;8.164;2023-09-19T07:43:06;99647.25;;;19.04;64.37
16777;BME280;8505;49.456;8.164;2023-09-19T07:45:36;99632.69;;;18.81;64.96
16777;BME280;8505;49.456;8.164;2023-09-19T07:48:04;99644.75;;;18.90;64.67
16777;BME280;8505;49.456;8.164;2023-09-19T07:50:40;99651.94;;;19.20;64.85
16777;BME280;8505;49.456;8.164;2023-09-19T07:53:10;99660.59;;;18.62;66.23
16777;BME280;8505;49.456;8.164;2023-09-19T07:55:40;99642.88;;;18.91;66.12
16777;BME280;8505;49.456;8.164;2023-09-19T07:58:09;99649.13;;;18.55;65.79
16777;BME280;8505;49.456;8.164;2023-09-19T08:00:38;99655.66;;;18.41;67.30
16777;BME280;8505;49.456;8.164;2023-09-19T08:03:06;99656.19;;;18.31;66.20
16777;BME280;8505;49.456;8.164;2023-09-19T08:05:43;99665.28;;;18.30;65.93
16777;BME280;8505;49.456;8.164;2023-09-19T08:08:12;99665.81;;;18.39;65.68
16777;BME280;8505;49.456;8.164;2023-09-19T08:10:41;99668.50;;;18.57;65.78
16777;BME280;8505;49.456;8.164;2023-09-19T08:13:10;99675.63;;;19.11;64.37
16777;BME280;8505;49.456;8.164;2023-09-19T08:15:44;99673.25;;;19.03;62.83
16777;BME280;8505;49.456;8.164;2023-09-19T08:18:12;99678.81;;;18.90;63.56
16777;BME280;8505;49.456;8.164;2023-09-19T08:20:40;99682.09;;;18.92;62.32
16777;BME280;8505;49.456;8.164;2023-09-19T08:23:09;99699.16;;;18.25;63.77
16777;BME280;8505;49.456;8.164;2023-09-19T08:25:36;99688.81;;;18.46;63.32
16777;BME280;8505;49.456;8.164;2023-09-19T08:28:05;99695.34;;;18.57;63.10
16777;BME280;8505;49.456;8.164;2023-09-19T08:30:38;99682.75;;;19.06;61.39
16777;BME280;8505;49.456;8.164;2023-09-19T08:33:08;99694.56;;;18.68;62.42
16777;BME280;8505;49.456;8.164;2023-09-19T08:35:37;99689.94;;;18.93;61.27
16777;BME280;8505;49.456;8.164;2023-09-19T08:38:06;99700.81;;;18.80;61.06
16777;BME280;8505;49.456;8.164;2023-09-19T08:40:37;99701.31;;;18.89;61.59
16777;BME280;8505;49.456;8.164;2023-09-19T08:43:06;99689.59;;;19.02;60.16
16777;BME280;8505;49.456;8.164;2023-09-19T08:45:34;99703.09;;;18.95;60.92
16777;BME280;8505;49.456;8.164;2023-09-19T08:48:16;99686.44;;;19.34;57.87
16777;BME280;8505;49.456;8.164;2023-09-19T08:50:49;99696.84;;;19.31;57.91
16777;BME280;8505;49.456;8.164;2023-09-19T08:53:21;99701.09;;;19.20;58.09
16777;BME280;8505;49.456;8.164;2023-09-19T08:55:54;99699.78;;;19.41;56.72
16777;BME280;8505;49.456;8.164;2023-09-19T08:58:27;99696.75;;;20.02;55.01
16777;BME280;8505;49.456;8.164;2023-09-19T09:00:57;99699.00;;;19.52;55.58
16777;BME280;8505;49.456;8.164;2023-09-19T09:03:32;99694.25;;;18.94;56.78
16777;BME280;8505;49.456;8.164;2023-09-19T09:06:01;99703.03;;;19.31;56.12
16777;BME280;8505;49.456;8.164;2023-09-19T09:08:31;99705.38;;;19.39;56.07
16777;BME280;8505;49.456;8.164;2023-09-19T09:11:00;99708.81;;;19.17;56.39
16777;BME280;8505;49.456;8.164;2023-09-19T09:13:28;99710.50;;;19.71;55.69
16777;BME280;8505;49.456;8.164;2023-09-19T09:15:57;99714.91;;;19.24;56.69
16777;BME280;8505;49.456;8.164;2023-09-19T09:18:25;99711.00;;;18.90;57.60
16777;BME280;8505;49.456;8.164;2023-09-19T09:20:55;99713.13;;;18.88;58.49
16777;BME280;8505;49.456;8.164;2023-09-19T09:23:23;99719.00;;;18.78;57.95
16777;BME280;8505;49.456;8.164;2023-09-19T09:25:52;99718.09;;;18.84;57.81
16777;BME280;8505;49.456;8.164;2023-09-19T09:28:30;99728.16;;;18.71;58.49
16777;BME280;8505;49.456;8.164;2023-09-19T09:31:00;99720.84;;;18.41;58.50
16777;BME280;8505;49.456;8.164;2023-09-19T09:33:29;99726.53;;;18.51;58.19
16777;BME280;8505;49.456;8.164;2023-09-19T09:36:00;99717.66;;;18.87;57.58
16777;BME280;8505;49.456;8.164;2023-09-19T09:38:30;99723.44;;;18.48;58.05
16777;BME280;8505;49.456;8.164;2023-09-19T09:41:10;99714.31;;;18.92;57.63
16777;BME280;8505;49.456;8.164;2023-09-19T09:43:42;99710.66;;;19.16;56.67
16777;BME280;8505;49.456;8.164;2023-09-19T09:46:14;99717.31;;;19.44;55.97
16777;BME280;8505;49.456;8.164;2023-09-19T09:49:01;99713.88;;;19.55;56.58
16777;BME280;8505;49.456;8.164;2023-09-19T09:52:03;99710.69;;;19.58;56.24
16777;BME280;8505;49.456;8.164;2023-09-19T09:54:37;99707.25;;;20.50;53.89
16777;BME280;8505;49.456;8.164;2023-09-19T09:57:09;99707.03;;;20.17;54.25
16777;BME280;8505;49.456;8.164;2023-09-19T09:59:51;99691.25;;;20.32;53.39
16777;BME280;8505;49.456;8.164;2023-09-19T10:02:21;99708.97;;;19.33;55.80
16777;BME280;8505;49.456;8.164;2023-09-19T10:04:56;99693.81;;;20.04;54.48
16777;BME280;8505;49.456;8.164;2023-09-19T10:07:38;99693.94;;;20.32;53.51
16777;BME280;8505;49.456;8.164;2023-09-19T10:10:10;99690.19;;;20.10;53.33
16777;BME280;8505;49.456;8.164;2023-09-19T10:12:44;99687.28;;;20.23;53.49
16777;BME280;8505;49.456;8.164;2023-09-19T10:15:17;99682.47;;;19.67;54.30
16777;BME280;8505;49.456;8.164;2023-09-19T10:17:47;99694.63;;;19.39;55.25
16777;BME280;8505;49.456;8.164;2023-09-19T10:20:16;99683.94;;;19.21;55.33
16777;BME280;8505;49.456;8.164;2023-09-19T10:23:05;99683.94;;;19.21;54.61
16777;BME280;8505;49.456;8.164;2023-09-19T10:25:38;99681.06;;;20.23;52.00
16777;BME280;8505;49.456;8.164;2023-09-19T10:28:07;99678.25;;;20.29;52.22
16777;BME280;8505;49.456;8.164;2023-09-19T10:30:41;99673.34;;;21.18;49.51
16777;BME280;8505;49.456;8.164;2023-09-19T10:33:12;99674.16;;;21.63;49.19
16777;BME280;8505;49.456;8.164;2023-09-19T10:35:42;99677.25;;;21.89;48.63
16777;BME280;8505;49.456;8.164;2023-09-19T10:38:14;99675.69;;;21.76;48.62
16777;BME280;8505;49.456;8.164;2023-09-19T10:40:48;99664.09;;;23.18;46.34
16777;BME280;8505;49.456;8.164;2023-09-19T10:43:18;99664.84;;;22.65;46.53
16777;BME280;8505;49.456;8.164;2023-09-19T10:45:49;99670.41;;;23.02;45.26
16777;BME280;8505;49.456;8.164;2023-09-19T10:48:19;99677.44;;;22.37;47.08
16777;BME280;8505;49.456;8.164;2023-09-19T10:50:57;99678.56;;;21.69;48.34
16777;BME280;8505;49.456;8.164;2023-09-19T10:53:31;99672.16;;;21.92;48.46
16777;BME280;8505;49.456;8.164;2023-09-19T10:56:07;99676.28;;;21.78;48.10
16777;BME280;8505;49.456;8.164;2023-09-19T10:58:41;99678.31;;;21.71;48.74
16777;BME280;8505;49.456;8.164;2023-09-19T11:01:11;99679.44;;;21.42;48.82
16777;BME280;8505;49.456;8.164;2023-09-19T11:03:41;99673.78;;;21.93;48.10
16777;BME280;8505;49.456;8.164;2023-09-19T11:06:16;99675.13;;;21.74;48.55
16777;BME280;8505;49.456;8.164;2023-09-19T11:09:07;99668.91;;;21.40;49.30
16777;BME280;8505;49.456;8.164;2023-09-19T11:11:50;99663.50;;;21.73;48.24
16777;BME280;8505;49.456;8.164;2023-09-19T11:14:30;99664.34;;;21.91;48.57
16777;BME280;8505;49.456;8.164;2023-09-19T11:20:21;99662.44;;;21.13;50.70
16777;BME280;8505;49.456;8.164;2023-09-19T11:23:22;99662.16;;;20.69;52.18
16777;BME280;8505;49.456;8.164;2023-09-19T11:25:53;99646.94;;;21.03;52.00
16777;BME280;8505;49.456;8.164;2023-09-19T11:28:32;99658.22;;;21.62;50.66
16777;BME280;8505;49.456;8.164;2023-09-19T11:31:41;99658.69;;;22.09;49.15
16777;BME280;8505;49.456;8.164;2023-09-19T11:34:44;99641.69;;;21.92;48.81
16777;BME280;8505;49.456;8.164;2023-09-19T11:40:34;99646.03;;;21.76;49.65
16777;BME280;8505;49.456;8.164;2023-09-19T11:46:07;99643.22;;;22.65;47.86
16777;BME280;8505;49.456;8.164;2023-09-19T11:48:38;99629.56;;;22.98;46.61
16777;BME280;8505;49.456;8.164;2023-09-19T11:51:17;99626.09;;;23.03;47.15
16777;BME280;8505;49.456;8.164;2023-09-19T11:53:56;99622.00;;;22.95;46.13
16777;BME280;8505;49.456;8.164;2023-09-19T11:56:26;99616.75;;;23.15;45.37
16777;BME280;8505;49.456;8.164;2023-09-19T11:58:55;99622.31;;;23.30;44.78
16777;BME280;8505;49.456;8.164;2023-09-19T12:01:29;99616.47;;;23.12;45.06
16777;BME280;8505;49.456;8.164;2023-09-19T12:04:00;99618.41;;;23.16;44.92
16777;BME280;8505;49.456;8.164;2023-09-19T12:06:30;99615.16;;;23.83;43.94
16777;BME280;8505;49.456;8.164;2023-09-19T12:08:59;99615.03;;;23.04;45.57
16777;BME280;8505;49.456;8.164;2023-09-19T12:11:29;99610.09;;;22.96;45.17
16777;BME280;8505;49.456;8.164;2023-09-19T12:14:01;99604.84;;;22.84;45.81
16777;BME280;8505;49.456;8.164;2023-09-19T12:16:30;99608.88;;;23.40;44.67
16777;BME280;8505;49.456;8.164;2023-09-19T12:19:17;99604.47;;;23.29;44.03
16777;BME280;8505;49.456;8.164;2023-09-19T12:21:56;99598.91;;;23.78;43.06
16777;BME280;8505;49.456;8.164;2023-09-19T12:24:27;99600.34;;;23.96;42.84
16777;BME280;8505;49.456;8.164;2023-09-19T12:27:01;99598.09;;;23.77;43.43
16777;BME280;8505;49.456;8.164;2023-09-19T12:29:31;99590.34;;;22.69;45.30
16777;BME280;8505;49.456;8.164;2023-09-19T12:32:03;99593.94;;;22.74;44.57
16777;BME280;8505;49.456;8.164;2023-09-19T12:34:33;99594.25;;;22.78;44.85
16777;BME280;8505;49.456;8.164;2023-09-19T12:37:07;99597.25;;;23.08;44.10
16777;BME280;8505;49.456;8.164;2023-09-19T12:39:39;99598.22;;;22.27;45.57
16777;BME280;8505;49.456;8.164;2023-09-19T12:42:09;99594.84;;;22.58;45.23
16777;BME280;8505;49.456;8.164;2023-09-19T12:44:41;99583.22;;;22.57;45.11
16777;BME280;8505;49.456;8.164;2023-09-19T12:47:11;99584.16;;;22.95;45.74
16777;BME280;8505;49.456;8.164;2023-09-19T12:50:11;99588.19;;;23.51;43.87
16777;BME280;8505;49.456;8.164;2023-09-19T12:52:48;99594.19;;;23.26;44.92
16777;BME280;8505;49.456;8.164;2023-09-19T12:55:21;99578.28;;;23.67;43.36
16777;BME280;8505;49.456;8.164;2023-09-19T12:57:57;99580.28;;;23.13;43.97
16777;BME280;8505;49.456;8.164;2023-09-19T13:00:36;99571.19;;;23.24;44.57
16777;BME280;8505;49.456;8.164;2023-09-19T13:03:17;99573.16;;;23.02;44.57
16777;BME280;8505;49.456;8.164;2023-09-19T13:05:49;99574.69;;;23.56;43.83
16777;BME280;8505;49.456;8.164;2023-09-19T13:08:21;99566.69;;;23.76;43.79
16777;BME280;8505;49.456;8.164;2023-09-19T13:11:03;99563.03;;;23.19;44.66
16777;BME280;8505;49.456;8.164;2023-09-19T13:13:33;99565.06;;;23.02;45.27
16777;BME280;8505;49.456;8.164;2023-09-19T13:16:03;99554.50;;;23.00;45.79
16777;BME280;8505;49.456;8.164;2023-09-19T13:18:46;99556.66;;;23.67;44.26
16777;BME280;8505;49.456;8.164;2023-09-19T13:21:26;99556.63;;;23.62;44.91
16777;BME280;8505;49.456;8.164;2023-09-19T13:24:19;99550.91;;;23.58;44.41
16777;BME280;8505;49.456;8.164;2023-09-19T13:26:47;99538.34;;;23.84;43.18
16777;BME280;8505;49.456;8.164;2023-09-19T13:29:15;99554.31;;;23.44;44.19
16777;BME280;8505;49.456;8.164;2023-09-19T13:31:46;99548.34;;;23.42;44.83
16777;BME280;8505;49.456;8.164;2023-09-19T13:34:14;99564.13;;;23.55;44.07
16777;BME280;8505;49.456;8.164;2023-09-19T13:36:44;99553.44;;;23.01;45.44
16777;BME280;8505;49.456;8.164;2023-09-19T13:39:13;99554.50;;;23.32;46.03
16777;BME280;8505;49.456;8.164;2023-09-19T13:41:43;99550.63;;;23.55;44.46